createdAt,value
2023-05-12T00:00:44.615Z,3.20
2023-05-12T00:03:14.385Z,2.90
2023-05-12T00:05:42.291Z,3.50
2023-05-12T00:08:10.296Z,3.20
2023-05-12T00:10:38.202Z,3.40
2023-05-12T00:13:06.190Z,3.40
2023-05-12T00:15:34.064Z,3.50
2023-05-12T00:18:01.860Z,4.20
2023-05-12T00:20:29.701Z,3.80
2023-05-12T00:22:57.440Z,4.40
2023-05-12T00:25:25.193Z,4.10
2023-05-12T00:27:52.904Z,3.80
2023-05-12T00:30:21.350Z,4.00
2023-05-12T00:32:49.435Z,4.50
2023-05-12T00:35:17.935Z,4.30
2023-05-12T00:37:45.835Z,4.70
2023-05-12T00:40:13.841Z,4.50
2023-05-12T00:42:42.118Z,4.70
2023-05-12T00:45:10.698Z,5.10
2023-05-12T00:47:39.155Z,5.60
2023-05-12T00:50:08.551Z,4.90
2023-05-12T00:52:36.665Z,5.30
2023-05-12T00:55:05.652Z,5.50
2023-05-12T00:57:33.814Z,5.30
2023-05-12T01:00:01.935Z,5.60
2023-05-12T01:02:30.463Z,5.90
2023-05-12T01:04:58.581Z,5.20
2023-05-12T01:07:27.832Z,5.60
2023-05-12T01:09:56.548Z,5.60
2023-05-12T01:12:27.421Z,6.40
2023-05-12T01:14:57.311Z,6.50
2023-05-12T01:17:36.116Z,7.90
2023-05-12T01:20:09.390Z,7.60
2023-05-12T01:22:38.992Z,8.30
2023-05-12T01:25:12.542Z,10.20
2023-05-12T01:27:43.046Z,9.10
2023-05-12T01:30:16.925Z,9.50
2023-05-12T01:32:45.638Z,9.30
2023-05-12T01:35:13.623Z,10.70
2023-05-12T01:37:47.307Z,10.40
2023-05-12T01:40:15.358Z,9.80
2023-05-12T01:42:43.325Z,11.10
2023-05-12T01:45:12.710Z,10.20
2023-05-12T01:47:41.111Z,11.70
2023-05-12T01:50:10.952Z,11.50
2023-05-12T01:52:39.102Z,11.30
2023-05-12T01:55:10.855Z,11.90
2023-05-12T01:57:45.862Z,11.40
2023-05-12T02:00:14.646Z,12.60
2023-05-12T02:02:45.215Z,11.50
2023-05-12T02:05:13.634Z,12.40
2023-05-12T02:07:42.511Z,12.70
2023-05-12T02:10:10.707Z,12.60
2023-05-12T02:12:39.115Z,11.30
2023-05-12T02:15:07.609Z,11.80
2023-05-12T02:17:37.087Z,11.50
2023-05-12T02:20:06.849Z,11.40
2023-05-12T02:22:34.720Z,11.70
2023-05-12T02:25:02.902Z,11.10
2023-05-12T02:27:32.548Z,11.50
2023-05-12T02:30:00.371Z,11.80
2023-05-12T02:32:28.664Z,13.50
2023-05-12T02:34:56.978Z,12.70
2023-05-12T02:37:24.947Z,13.10
2023-05-12T02:39:52.801Z,13.10
2023-05-12T02:42:20.755Z,12.00
2023-05-12T02:44:48.591Z,11.80
2023-05-12T02:47:16.378Z,11.90
2023-05-12T02:49:44.513Z,12.10
2023-05-12T02:52:12.393Z,12.50
2023-05-12T02:54:40.284Z,12.50
2023-05-12T02:57:08.254Z,12.10
2023-05-12T02:59:36.069Z,11.40
2023-05-12T03:02:05.546Z,11.40
2023-05-12T03:04:33.555Z,11.50
2023-05-12T03:07:01.406Z,10.40
2023-05-12T03:09:29.304Z,9.50
2023-05-12T03:11:57.938Z,10.20
2023-05-12T03:14:26.679Z,9.50
2023-05-12T03:16:54.499Z,9.40
2023-05-12T03:19:22.309Z,8.80
2023-05-12T03:21:51.199Z,8.80
2023-05-12T03:24:18.979Z,9.30
2023-05-12T03:26:46.989Z,8.60
2023-05-12T03:29:14.727Z,9.60
2023-05-12T03:31:42.557Z,8.60
2023-05-12T03:34:10.640Z,9.80
2023-05-12T03:36:38.680Z,10.70
2023-05-12T03:39:08.753Z,9.80
2023-05-12T03:41:37.002Z,10.10
2023-05-12T03:44:06.232Z,10.20
2023-05-12T03:46:35.208Z,9.60
2023-05-12T03:49:03.282Z,10.00
2023-05-12T03:51:31.241Z,10.70
2023-05-12T03:53:59.106Z,9.40
2023-05-12T03:56:28.546Z,10.00
2023-05-12T03:58:57.555Z,9.50
2023-05-12T04:01:25.553Z,10.20
2023-05-12T04:03:53.455Z,9.40
2023-05-12T04:06:21.450Z,9.80
2023-05-12T04:08:49.242Z,8.30
2023-05-12T04:11:17.033Z,8.60
2023-05-12T04:13:45.022Z,8.60
2023-05-12T04:16:12.847Z,9.50
2023-05-12T04:18:40.936Z,8.50
2023-05-12T04:21:09.183Z,9.10
2023-05-12T04:23:37.012Z,9.30
2023-05-12T04:26:05.411Z,8.00
2023-05-12T04:28:33.369Z,8.70
2023-05-12T04:31:04.685Z,7.30
2023-05-12T04:33:32.894Z,9.10
2023-05-12T04:36:01.400Z,8.60
2023-05-12T04:38:29.455Z,9.50
2023-05-12T04:41:01.217Z,8.60
2023-05-12T04:48:29.974Z,8.00
2023-05-12T04:51:00.930Z,8.00
2023-05-12T04:55:56.922Z,8.30
2023-05-12T04:58:25.991Z,8.70
2023-05-12T05:00:55.252Z,8.00
2023-05-12T05:03:23.593Z,8.90
2023-05-12T05:05:51.644Z,7.70
2023-05-12T05:08:19.447Z,8.60
2023-05-12T05:10:47.218Z,7.50
2023-05-12T05:13:16.471Z,7.40
2023-05-12T05:15:54.694Z,7.90
2023-05-12T05:18:24.721Z,7.70
2023-05-12T05:20:58.436Z,8.20
2023-05-12T05:23:26.933Z,7.70
2023-05-12T05:25:55.235Z,8.80
2023-05-12T05:28:23.156Z,8.10
2023-05-12T05:30:50.932Z,7.00
2023-05-12T05:33:18.712Z,7.60
2023-05-12T05:35:48.025Z,7.40
2023-05-12T05:38:16.316Z,7.20
2023-05-12T05:40:52.848Z,6.80
2023-05-12T05:43:21.854Z,7.50
2023-05-12T05:45:50.826Z,6.80
2023-05-12T05:48:19.620Z,7.40
2023-05-12T05:50:48.732Z,7.10
2023-05-12T05:53:18.606Z,6.80
2023-05-12T05:55:48.773Z,7.20
2023-05-12T05:58:16.862Z,7.10
2023-05-12T06:00:45.351Z,6.70
2023-05-12T06:03:13.437Z,6.50
2023-05-12T06:05:43.185Z,6.80
2023-05-12T06:08:13.410Z,5.50
2023-05-12T06:10:41.721Z,5.10
2023-05-12T06:13:09.783Z,6.20
2023-05-12T06:15:37.696Z,5.00
2023-05-12T06:18:05.796Z,4.80
2023-05-12T06:20:33.759Z,4.90
2023-05-12T06:23:02.566Z,5.60
2023-05-12T06:25:30.468Z,5.40
2023-05-12T06:27:58.185Z,6.10
2023-05-12T06:30:26.892Z,6.30
2023-05-12T06:32:56.135Z,6.10
2023-05-12T06:35:23.947Z,7.00
2023-05-12T06:37:51.758Z,6.90
2023-05-12T06:40:19.616Z,6.90
2023-05-12T06:42:47.953Z,6.80
2023-05-12T06:45:21.155Z,6.40
2023-05-12T06:47:50.374Z,6.50
2023-05-12T06:50:19.447Z,6.40
2023-05-12T06:52:51.230Z,6.00
2023-05-12T06:55:20.692Z,6.00
2023-05-12T06:57:51.504Z,6.50
2023-05-12T07:00:19.701Z,5.80
2023-05-12T07:02:47.541Z,6.00
2023-05-12T07:05:15.374Z,5.70
2023-05-12T07:07:43.099Z,5.90
2023-05-12T07:10:11.196Z,6.10
2023-05-12T07:12:39.339Z,5.90
2023-05-12T07:15:08.582Z,5.60
2023-05-12T07:17:36.410Z,6.10
2023-05-12T07:20:05.759Z,5.70
2023-05-12T07:22:33.855Z,6.20
2023-05-12T07:25:01.811Z,6.00
2023-05-12T07:27:29.578Z,5.00
2023-05-12T07:29:57.624Z,6.30
2023-05-12T07:32:25.738Z,5.70
2023-05-12T07:34:53.513Z,5.70
2023-05-12T07:37:21.311Z,5.80
2023-05-12T07:39:49.614Z,5.90
2023-05-12T07:42:17.485Z,5.60
2023-05-12T07:44:45.265Z,5.60
2023-05-12T07:47:13.001Z,6.40
2023-05-12T07:49:40.974Z,5.50
2023-05-12T07:52:08.756Z,5.60
2023-05-12T07:54:36.496Z,5.60
2023-05-12T07:57:04.749Z,5.50
2023-05-12T07:59:33.329Z,5.90
2023-05-12T08:02:01.113Z,7.10
2023-05-12T08:04:29.029Z,7.30
2023-05-12T08:06:56.787Z,8.40
2023-05-12T08:09:24.659Z,7.20
2023-05-12T08:11:52.484Z,6.90
2023-05-12T08:14:22.370Z,7.90
2023-05-12T08:16:50.158Z,7.90
2023-05-12T08:19:18.098Z,7.40
2023-05-12T08:21:45.905Z,8.40
2023-05-12T08:24:13.629Z,7.90
2023-05-12T08:26:41.381Z,8.20
2023-05-12T08:29:09.654Z,7.50
2023-05-12T08:31:38.731Z,6.50
2023-05-12T08:34:10.775Z,6.40
2023-05-12T08:36:40.372Z,6.10
2023-05-12T08:39:11.639Z,6.60
2023-05-12T08:44:13.206Z,7.50
2023-05-12T08:46:42.910Z,8.30
2023-05-12T08:49:16.503Z,7.60
2023-05-12T08:51:56.852Z,7.10
2023-05-12T08:54:29.487Z,7.20
2023-05-12T08:59:28.212Z,6.30
2023-05-12T09:01:56.987Z,6.90
2023-05-12T09:04:24.869Z,7.40
2023-05-12T09:06:55.587Z,6.70
2023-05-12T09:09:28.440Z,6.70
2023-05-12T09:11:59.833Z,7.30
2023-05-12T09:14:33.844Z,7.20
2023-05-12T09:17:05.324Z,7.40
2023-05-12T09:19:34.390Z,6.70
2023-05-12T09:22:02.187Z,6.20
2023-05-12T09:24:38.316Z,5.60
2023-05-12T09:27:07.320Z,5.90
2023-05-12T09:29:42.539Z,5.00
2023-05-12T09:32:34.175Z,4.30
2023-05-12T09:35:07.830Z,4.20
2023-05-12T09:37:35.621Z,4.20
2023-05-12T09:40:06.761Z,3.50
2023-05-12T09:42:35.866Z,3.80
2023-05-12T09:45:05.859Z,3.60
2023-05-12T09:47:41.031Z,2.90
2023-05-12T09:50:10.233Z,2.50
2023-05-12T09:52:39.826Z,4.30
2023-05-12T09:55:13.214Z,3.60
2023-05-12T09:57:45.644Z,3.20
2023-05-12T10:00:36.585Z,3.40
2023-05-12T10:03:15.318Z,3.00
2023-05-12T10:05:51.789Z,2.90
2023-05-12T10:08:34.916Z,2.80
2023-05-12T10:11:05.435Z,2.80
2023-05-12T10:13:34.693Z,4.20
2023-05-12T10:16:03.620Z,4.30
2023-05-12T10:18:34.618Z,3.90
2023-05-12T10:21:04.033Z,4.80
2023-05-12T10:23:32.811Z,4.00
2023-05-12T10:26:02.453Z,3.70
2023-05-12T10:28:30.325Z,3.90
2023-05-12T10:30:59.445Z,3.30
2023-05-12T10:33:27.755Z,3.40
2023-05-12T10:35:55.823Z,3.20
2023-05-12T10:38:23.789Z,3.00
2023-05-12T10:41:05.555Z,2.90
2023-05-12T10:43:48.137Z,2.90
2023-05-12T10:46:19.604Z,2.90
2023-05-12T10:49:08.463Z,3.00
2023-05-12T10:51:45.328Z,3.30
2023-05-12T10:54:21.852Z,3.30
2023-05-12T10:56:50.361Z,3.90
2023-05-12T10:59:23.072Z,3.50
2023-05-12T11:02:06.940Z,4.00
2023-05-12T11:04:55.537Z,4.20
2023-05-12T11:07:30.533Z,4.40
2023-05-12T11:10:02.017Z,4.30
2023-05-12T11:12:33.476Z,4.20
2023-05-12T11:15:03.912Z,3.70
2023-05-12T11:17:32.565Z,3.90
2023-05-12T11:20:01.471Z,4.00
2023-05-12T11:22:29.726Z,3.80
2023-05-12T11:24:57.728Z,3.90
2023-05-12T11:27:26.544Z,3.40
2023-05-12T11:30:00.670Z,3.60
2023-05-12T11:32:29.702Z,3.00
2023-05-12T11:35:16.459Z,2.90
2023-05-12T11:37:46.263Z,3.30
2023-05-12T11:40:22.907Z,2.80
2023-05-12T11:42:53.021Z,2.90
2023-05-12T11:45:27.566Z,3.00
2023-05-12T11:48:13.809Z,3.00
2023-05-12T11:50:48.678Z,2.70
2023-05-12T11:53:19.214Z,2.60
2023-05-12T11:55:56.371Z,2.70
2023-05-12T11:58:27.232Z,2.60
2023-05-12T12:00:57.271Z,2.20
2023-05-12T12:03:25.765Z,2.30
2023-05-12T12:06:06.667Z,2.80
2023-05-12T12:08:34.554Z,2.70
2023-05-12T12:11:04.149Z,2.90
2023-05-12T12:13:32.026Z,3.20
2023-05-12T12:15:59.914Z,2.40
2023-05-12T12:18:27.727Z,2.50
2023-05-12T12:20:55.540Z,2.60
2023-05-12T12:23:23.386Z,2.70
2023-05-12T12:25:51.518Z,2.90
2023-05-12T12:28:19.945Z,2.80
2023-05-12T12:30:48.017Z,2.40
2023-05-12T12:33:18.888Z,2.60
2023-05-12T12:35:48.361Z,2.70
2023-05-12T12:38:16.510Z,2.40
2023-05-12T12:40:44.687Z,2.80
2023-05-12T12:43:12.463Z,2.70
2023-05-12T12:45:40.243Z,2.90
2023-05-12T12:48:09.513Z,3.30
2023-05-12T12:50:37.492Z,3.20
2023-05-12T12:53:05.676Z,3.40
2023-05-12T12:55:33.462Z,3.10
2023-05-12T12:58:01.344Z,3.00
2023-05-12T13:00:29.481Z,2.90
2023-05-12T13:02:57.559Z,2.60
2023-05-12T13:05:25.767Z,2.70
2023-05-12T13:07:53.572Z,2.60
2023-05-12T13:10:21.468Z,2.60
2023-05-12T13:12:49.212Z,2.30
2023-05-12T13:15:19.485Z,2.40
2023-05-12T13:17:47.898Z,2.60
2023-05-12T13:20:16.565Z,2.60
2023-05-12T13:22:45.445Z,2.70
2023-05-12T13:25:13.208Z,2.40
2023-05-12T13:27:41.115Z,2.50
2023-05-12T13:30:10.891Z,2.40
2023-05-12T13:32:40.829Z,2.40
2023-05-12T13:35:09.582Z,2.60
2023-05-12T13:37:37.817Z,2.70
2023-05-12T13:40:06.919Z,2.50
2023-05-12T13:42:34.989Z,3.30
2023-05-12T13:45:03.121Z,2.70
2023-05-12T13:47:30.988Z,3.20
2023-05-12T13:49:58.975Z,3.50
2023-05-12T13:52:27.506Z,3.80
2023-05-12T13:54:55.330Z,3.40
2023-05-12T13:57:23.162Z,3.80
2023-05-12T13:59:52.094Z,3.90
2023-05-12T14:02:19.926Z,4.60
2023-05-12T14:04:47.803Z,4.00
2023-05-12T14:07:15.831Z,4.70
2023-05-12T14:09:43.575Z,4.30
2023-05-12T14:12:11.413Z,4.50
2023-05-12T14:14:39.162Z,4.40
2023-05-12T14:17:06.954Z,4.90
2023-05-12T14:19:35.799Z,4.60
2023-05-12T14:22:12.520Z,5.10
2023-05-12T14:24:46.719Z,5.20
2023-05-12T14:27:14.475Z,5.20
2023-05-12T14:29:42.236Z,5.50
2023-05-12T14:32:10.236Z,5.30
2023-05-12T14:34:38.072Z,5.80
2023-05-12T14:37:06.435Z,7.30
2023-05-12T14:39:34.401Z,9.00
2023-05-12T14:42:02.146Z,8.70
2023-05-12T14:44:29.867Z,8.80
2023-05-12T14:46:57.778Z,8.40
2023-05-12T14:49:25.607Z,8.60
2023-05-12T14:51:53.363Z,7.50
2023-05-12T14:54:25.720Z,7.60
2023-05-12T14:56:54.061Z,7.60
2023-05-12T14:59:22.176Z,7.10
2023-05-12T15:01:50.235Z,8.10
2023-05-12T15:04:18.156Z,7.90
2023-05-12T15:06:46.000Z,8.10
2023-05-12T15:09:13.838Z,8.50
2023-05-12T15:11:45.384Z,8.20
2023-05-12T15:14:13.224Z,8.90
2023-05-12T15:16:41.863Z,8.50
2023-05-12T15:19:10.028Z,8.20
2023-05-12T15:21:38.099Z,7.30
2023-05-12T15:24:06.443Z,7.20
2023-05-12T15:26:35.620Z,6.60
2023-05-12T15:29:04.678Z,6.90
2023-05-12T15:31:32.504Z,6.80
2023-05-12T15:34:00.802Z,6.70
2023-05-12T15:36:28.606Z,6.00
2023-05-12T15:38:56.714Z,6.70
2023-05-12T15:41:24.504Z,6.90
2023-05-12T15:43:52.280Z,7.40
2023-05-12T15:46:20.096Z,8.10
2023-05-12T15:48:50.905Z,7.50
2023-05-12T15:51:18.763Z,7.30
2023-05-12T15:53:46.782Z,7.10
2023-05-12T15:56:14.653Z,7.60
2023-05-12T15:58:42.511Z,8.60
2023-05-12T16:01:10.497Z,8.40
2023-05-12T16:03:38.663Z,7.30
2023-05-12T16:06:08.219Z,7.60
2023-05-12T16:08:36.837Z,7.60
2023-05-12T16:11:05.288Z,8.10
2023-05-12T16:13:33.277Z,9.00
2023-05-12T16:16:02.055Z,7.80
2023-05-12T16:18:31.240Z,8.00
2023-05-12T16:20:59.512Z,6.70
2023-05-12T16:23:28.159Z,6.30
2023-05-12T16:25:56.021Z,6.70
2023-05-12T16:28:23.852Z,6.20
2023-05-12T16:30:51.601Z,5.50
2023-05-12T16:33:19.587Z,6.80
2023-05-12T16:35:47.399Z,6.60
2023-05-12T16:38:15.311Z,7.50
2023-05-12T16:40:43.110Z,7.20
2023-05-12T16:43:10.932Z,6.50
2023-05-12T16:45:39.072Z,7.50
2023-05-12T16:48:06.932Z,7.10
2023-05-12T16:50:34.776Z,6.20
2023-05-12T16:53:02.562Z,7.40
2023-05-12T16:55:30.866Z,6.70
2023-05-12T16:57:58.638Z,7.20
2023-05-12T17:00:26.889Z,7.30
2023-05-12T17:02:55.118Z,6.80
2023-05-12T17:05:23.339Z,6.20
2023-05-12T17:07:51.218Z,7.60
2023-05-12T17:10:18.971Z,7.50
2023-05-12T17:12:46.820Z,7.90
2023-05-12T17:15:14.744Z,7.10
2023-05-12T17:17:42.545Z,7.00
2023-05-12T17:20:11.702Z,6.60
2023-05-12T17:22:43.997Z,6.40
2023-05-12T17:25:12.584Z,7.30
2023-05-12T17:27:40.445Z,7.00
2023-05-12T17:30:09.224Z,6.60
2023-05-12T17:32:37.424Z,7.40
2023-05-12T17:35:08.000Z,7.20
2023-05-12T17:37:37.227Z,6.70
2023-05-12T17:40:14.562Z,7.90
2023-05-12T17:42:42.372Z,6.50
2023-05-12T17:45:11.453Z,7.30
2023-05-12T17:47:39.319Z,6.50
2023-05-12T17:50:10.752Z,6.90
2023-05-12T17:55:08.202Z,6.90
2023-05-12T17:57:38.076Z,6.80
2023-05-12T18:00:10.434Z,7.60
2023-05-12T18:02:45.052Z,7.80
2023-05-12T18:05:12.987Z,8.00
2023-05-12T18:07:40.757Z,7.60
2023-05-12T18:10:11.126Z,7.30
2023-05-12T18:12:39.195Z,6.80
2023-05-12T18:15:08.626Z,7.10
2023-05-12T18:17:36.772Z,7.60
2023-05-12T18:20:06.616Z,7.80
2023-05-12T18:22:34.507Z,7.90
2023-05-12T18:25:02.479Z,8.10
2023-05-12T18:27:30.443Z,7.50
2023-05-12T18:29:59.758Z,7.00
2023-05-12T18:32:27.623Z,7.30
2023-05-12T18:34:55.394Z,7.80
2023-05-12T18:37:23.562Z,7.50
2023-05-12T18:39:53.361Z,6.90
2023-05-12T18:42:21.246Z,7.10
2023-05-12T18:44:49.202Z,7.10
2023-05-12T18:47:17.264Z,6.80
2023-05-12T18:49:45.201Z,7.50
2023-05-12T18:52:13.793Z,7.90
2023-05-12T18:54:42.207Z,7.70
2023-05-12T18:57:10.307Z,8.00
2023-05-12T18:59:38.735Z,8.00
2023-05-12T19:02:07.940Z,7.70
2023-05-12T19:04:37.038Z,7.60
2023-05-12T19:07:10.022Z,7.80
2023-05-12T19:09:38.708Z,7.20
2023-05-12T19:12:11.958Z,7.90
2023-05-12T19:14:41.640Z,7.90
2023-05-12T19:17:11.189Z,8.10
2023-05-12T19:19:40.314Z,8.40
2023-05-12T19:22:08.504Z,7.40
2023-05-12T19:24:38.487Z,7.60
2023-05-12T19:27:06.838Z,7.80
2023-05-12T19:29:34.680Z,7.00
2023-05-12T19:32:02.787Z,7.20
2023-05-12T19:34:31.581Z,7.50
2023-05-12T19:37:02.226Z,7.10
2023-05-12T19:39:30.041Z,7.10
2023-05-12T19:41:58.093Z,7.50
2023-05-12T19:44:25.847Z,7.90
2023-05-12T19:46:55.064Z,7.50
2023-05-12T19:49:22.802Z,8.00
2023-05-12T19:51:51.841Z,8.40
2023-05-12T19:54:22.339Z,7.60
2023-05-12T19:56:50.275Z,7.60
2023-05-12T19:59:18.857Z,8.50
2023-05-12T20:01:47.257Z,8.00
2023-05-12T20:04:16.210Z,7.70
2023-05-12T20:06:44.864Z,9.00
2023-05-12T20:09:13.058Z,8.00
2023-05-12T20:11:41.151Z,9.10
2023-05-12T20:14:08.967Z,8.60
2023-05-12T20:16:38.207Z,8.10
2023-05-12T20:19:06.217Z,8.20
2023-05-12T20:21:34.351Z,8.20
2023-05-12T20:24:02.179Z,8.20
2023-05-12T20:26:30.631Z,8.20
2023-05-12T20:28:59.619Z,7.70
2023-05-12T20:31:27.802Z,7.70
2023-05-12T20:33:56.381Z,8.30
2023-05-12T20:36:24.113Z,8.70
2023-05-12T20:38:51.967Z,8.50
2023-05-12T20:41:20.212Z,8.30
2023-05-12T20:43:49.074Z,7.80
2023-05-12T20:46:17.394Z,8.80
2023-05-12T20:48:45.534Z,8.20
2023-05-12T20:51:13.946Z,8.70
2023-05-12T20:53:42.766Z,8.50
2023-05-12T20:56:13.287Z,8.30
2023-05-12T20:58:42.465Z,8.70
2023-05-12T21:01:11.094Z,9.00
2023-05-12T21:03:39.337Z,8.80
2023-05-12T21:06:07.440Z,9.10
2023-05-12T21:08:35.429Z,8.90
2023-05-12T21:11:03.193Z,9.00
2023-05-12T21:13:31.003Z,9.30
2023-05-12T21:15:58.731Z,9.00
2023-05-12T21:18:27.073Z,8.20
2023-05-12T21:20:54.913Z,8.30
2023-05-12T21:23:22.631Z,8.30
2023-05-12T21:25:53.681Z,9.30
2023-05-12T21:28:22.054Z,8.40
2023-05-12T21:30:49.865Z,8.30
2023-05-12T21:33:17.620Z,8.90
2023-05-12T21:35:45.584Z,8.50
2023-05-12T21:38:13.392Z,8.50
2023-05-12T21:40:41.125Z,9.50
2023-05-12T21:43:08.905Z,8.30
2023-05-12T21:45:37.237Z,8.80
2023-05-12T21:48:05.579Z,8.70
2023-05-12T21:50:33.454Z,9.10
2023-05-12T21:53:01.270Z,8.30
2023-05-12T21:55:29.065Z,8.30
2023-05-12T21:57:57.400Z,8.20
2023-05-12T22:00:26.279Z,8.50
2023-05-12T22:02:54.261Z,7.50
2023-05-12T22:05:22.121Z,8.10
2023-05-12T22:07:49.923Z,7.90
2023-05-12T22:10:18.252Z,7.70
2023-05-12T22:12:46.596Z,7.90
2023-05-12T22:15:14.767Z,7.90
2023-05-12T22:17:43.201Z,7.30
2023-05-12T22:20:12.079Z,7.10
2023-05-12T22:22:40.055Z,7.60
2023-05-12T22:25:08.943Z,7.80
2023-05-12T22:27:37.382Z,6.20
2023-05-12T22:30:06.044Z,6.80
2023-05-12T22:32:33.969Z,6.90
2023-05-12T22:35:02.310Z,6.00
2023-05-12T22:37:30.228Z,6.80
2023-05-12T22:39:58.068Z,6.50
2023-05-12T22:42:25.811Z,6.90
2023-05-12T22:44:53.512Z,7.70
2023-05-12T22:47:21.505Z,7.50
2023-05-12T22:49:49.313Z,7.20
2023-05-12T22:52:17.040Z,7.20
2023-05-12T22:54:44.761Z,7.40
2023-05-12T22:57:12.538Z,6.60
2023-05-12T22:59:40.389Z,6.10
2023-05-12T23:02:08.629Z,7.10
2023-05-12T23:04:36.402Z,7.20
2023-05-12T23:07:05.374Z,7.40
2023-05-12T23:09:34.716Z,7.50
2023-05-12T23:12:04.291Z,7.30
2023-05-12T23:14:32.153Z,7.80
2023-05-12T23:17:00.046Z,6.80
2023-05-12T23:19:27.974Z,7.40
2023-05-12T23:21:55.862Z,7.60
2023-05-12T23:24:23.726Z,7.10
2023-05-12T23:26:51.551Z,7.20
2023-05-12T23:29:19.283Z,7.40
2023-05-12T23:31:47.268Z,7.00
2023-05-12T23:34:15.098Z,6.40
2023-05-12T23:36:42.850Z,6.70
2023-05-12T23:39:10.720Z,6.70
2023-05-12T23:41:38.452Z,6.60
2023-05-12T23:44:06.343Z,7.40
2023-05-12T23:46:34.492Z,5.80
2023-05-12T23:49:02.281Z,6.00
2023-05-12T23:51:30.067Z,5.90
2023-05-12T23:53:57.881Z,5.70
2023-05-12T23:56:25.762Z,6.10
2023-05-12T23:58:53.607Z,6.00
